Time;durP1;ratioP1;P1;durP2;ratioP2;P2;SDS_P1;SDS_P2;PMS_P1;PMS_P2;Temp;Humidity;BMP_temperature;BMP_pressure;BME280_temperature;BME280_humidity;BME280_pressure;Samples;Min_cycle;Max_cycle;Signal;HPM_P1;HPM_P2
2024/01/29 07:37:59;;;;;;;7.80;7.33;;;6.70;99.90;9.70;102282.00;;;;5091701;27;21081;-72
2024/01/29 07:40:25;;;;;;;1.90;1.53;;;6.80;99.90;8.80;102251.00;;;;5081849;28;20185;-72
2024/01/29 07:42:51;;;;;;;0.50;0.50;;;6.70;99.90;9.00;102274.00;;;;5069312;28;20604;-72
2024/01/29 07:45:17;;;;;;;0.23;0.23;;;6.70;99.90;8.50;102228.00;;;;5086159;28;20589;-72
2024/01/29 07:47:44;;;;;;;0.20;0.20;;;6.60;99.90;8.80;102277.00;;;;5085351;28;20186;-74
2024/01/29 07:50:10;;;;;;;0.77;0.77;;;6.60;99.90;8.80;102223.00;;;;5068828;28;20632;-74
2024/01/29 07:52:36;;;;;;;2.40;2.20;;;6.60;99.90;8.90;102284.00;;;;5079380;28;20196;-74
2024/01/29 07:55:02;;;;;;;0.67;0.67;;;6.60;99.90;9.20;102271.00;;;;5069311;28;20178;-72
2024/01/29 07:57:28;;;;;;;0.30;0.30;;;6.80;99.90;8.90;102272.00;;;;5059579;28;20204;-74
2024/01/29 07:59:55;;;;;;;2.10;2.00;;;6.80;99.90;9.10;102226.00;;;;5069503;28;20192;-74
2024/01/29 08:02:21;;;;;;;1.37;0.93;;;6.80;99.90;8.50;102266.00;;;;5083662;28;20191;-74
2024/01/29 08:04:47;;;;;;;1.07;1.07;;;6.80;99.90;8.60;102264.00;;;;5075648;28;20181;-74
2024/01/29 08:07:13;;;;;;;0.33;0.33;;;6.80;99.90;9.30;102270.00;;;;5083396;28;20314;-74
2024/01/29 08:09:39;;;;;;;0.60;0.60;;;6.90;99.90;9.30;102234.00;;;;5077707;28;20220;-74
2024/01/29 08:12:05;;;;;;;0.77;0.77;;;7.00;99.90;9.10;102279.00;;;;5073550;28;20229;-74
2024/01/29 08:14:34;;;;;;;0.23;0.23;;;7.00;99.90;9.50;102283.00;;;;5071004;28;20190;-72
2024/01/29 08:17:00;;;;;;;0.63;0.63;;;7.10;99.90;9.20;102272.00;;;;5071647;28;20216;-73
2024/01/29 08:19:26;;;;;;;1.80;1.67;;;7.10;99.90;9.50;102278.00;;;;5054469;28;20188;-75
2024/01/29 08:21:57;;;;;;;1.50;1.37;;;7.20;99.90;9.70;102274.00;;;;5064064;28;20690;-76
2024/01/29 08:24:24;;;;;;;0.70;0.70;;;7.30;99.90;9.80;102299.00;;;;5083811;28;20202;-75
2024/01/29 08:26:50;;;;;;;0.20;0.20;;;7.40;99.90;10.30;102245.00;;;;5068414;28;20214;-76
2024/01/29 08:29:16;;;;;;;0.70;0.70;;;7.60;99.90;10.40;102292.00;;;;5065766;28;20652;-76
2024/01/29 08:31:42;;;;;;;0.50;0.50;;;7.70;99.90;9.90;102300.00;;;;5067315;28;20178;-75
2024/01/29 08:34:11;;;;;;;0.70;0.70;;;7.60;99.90;10.30;102292.00;;;;5067924;28;20585;-75
2024/01/29 08:36:36;;;;;;;0.30;0.30;;;7.70;99.90;10.80;102301.00;;;;5068495;28;20300;-75
2024/01/29 08:39:02;;;;;;;0.20;0.20;;;7.80;99.90;10.70;102293.00;;;;5067573;28;20706;-75
2024/01/29 08:41:31;;;;;;;0.20;0.20;;;7.90;99.90;11.50;102310.00;;;;5101395;28;20506;-76
2024/01/29 08:44:00;;;;;;;2.87;2.77;;;8.30;99.90;10.70;102298.00;;;;5067054;28;20198;-75
2024/01/29 08:46:26;;;;;;;0.20;0.20;;;8.30;99.90;10.80;102294.00;;;;5098628;28;20182;-75
2024/01/29 08:48:52;;;;;;;0.20;0.20;;;8.20;99.90;10.90;102290.00;;;;5057717;28;20195;-76
2024/01/29 08:51:21;;;;;;;0.40;0.40;;;8.10;99.90;10.60;102294.00;;;;5054121;28;20239;-76
2024/01/29 08:53:47;;;;;;;0.33;0.33;;;8.20;99.90;10.50;102286.00;;;;5054520;28;20562;-76
2024/01/29 08:56:13;;;;;;;0.67;0.67;;;8.10;99.90;10.30;102304.00;;;;5054172;28;20252;-75
2024/01/29 08:58:39;;;;;;;0.57;0.57;;;8.00;99.90;10.20;102300.00;;;;5055036;28;20181;-76
2024/01/29 09:01:05;;;;;;;0.60;0.60;;;8.00;99.90;10.20;102283.00;;;;5059710;28;20268;-76
2024/01/29 09:03:34;;;;;;;1.33;1.13;;;8.00;99.90;10.80;102303.00;;;;5053838;28;20186;-77
2024/01/29 09:06:00;;;;;;;0.20;0.20;;;8.20;99.90;10.80;102303.00;;;;5062638;28;20194;-76
2024/01/29 09:08:27;;;;;;;0.60;0.60;;;8.30;99.90;11.00;102320.00;;;;5054015;28;20183;-76
2024/01/29 09:10:54;;;;;;;0.20;0.20;;;8.40;99.90;11.30;102322.00;;;;5054494;28;20223;-76
2024/01/29 09:13:20;;;;;;;0.63;0.63;;;8.60;99.90;10.80;102314.00;;;;5037685;28;20187;-74
2024/01/29 09:15:45;;;;;;;0.20;0.20;;;8.50;99.90;11.10;102314.00;;;;5052818;28;20185;-74
2024/01/29 09:18:14;;;;;;;0.30;0.30;;;8.40;99.90;11.10;102275.00;;;;5069529;28;20186;-74
2024/01/29 09:20:43;;;;;;;0.20;0.20;;;8.50;99.90;11.00;102323.00;;;;5054743;28;20263;-74
2024/01/29 09:23:12;;;;;;;0.40;0.40;;;8.60;99.90;11.20;102312.00;;;;5052299;28;20726;-74
2024/01/29 09:25:38;;;;;;;1.00;0.97;;;8.50;99.90;10.40;102294.00;;;;5058007;28;20181;-74
2024/01/29 09:28:04;;;;;;;0.80;0.80;;;8.40;99.90;10.90;102262.00;;;;5052640;28;20238;-74
2024/01/29 09:30:34;;;;;;;0.87;0.87;;;8.40;99.90;10.60;102306.00;;;;5050996;28;20190;-75
2024/01/29 09:32:59;;;;;;;0.20;0.20;;;8.40;99.90;10.90;102312.00;;;;5045574;28;20187;-75
2024/01/29 09:35:25;;;;;;;0.37;0.37;;;8.60;99.90;11.00;102289.00;;;;5053408;28;20192;-75
2024/01/29 09:37:51;;;;;;;0.20;0.20;;;8.60;99.90;11.00;102295.00;;;;5054648;28;20605;-75
2024/01/29 09:40:17;;;;;;;0.50;0.50;;;8.60;99.90;11.30;102329.00;;;;5054854;28;20190;-75
2024/01/29 09:42:52;;;;;;;0.97;0.97;;;8.80;99.90;10.60;102329.00;;;;5054634;28;20229;-75
2024/01/29 09:45:25;;;;;;;0.37;0.37;;;8.80;99.90;10.30;102312.00;;;;5053812;28;20191;-75
2024/01/29 09:47:53;;;;;;;0.37;0.37;;;8.60;99.90;11.50;102317.00;;;;5058924;28;20195;-76
2024/01/29 09:50:22;;;;;;;0.30;0.30;;;8.90;99.90;11.80;102294.00;;;;5053598;28;20190;-75
2024/01/29 09:52:51;;;;;;;0.43;0.43;;;9.20;99.90;11.90;102331.00;;;;5052945;28;20197;-75
2024/01/29 09:55:18;;;;;;;4.33;0.60;;;9.30;99.90;11.40;102324.00;;;;5070668;28;20731;-76
2024/01/29 09:57:44;;;;;;;2.37;2.10;;;9.10;99.90;11.40;102325.00;;;;5054190;28;20309;-75
2024/01/29 10:00:12;;;;;;;0.30;0.30;;;9.10;99.90;12.00;102323.00;;;;5054888;28;20691;-75
2024/01/29 10:02:42;;;;;;;0.87;0.87;;;9.30;99.90;12.50;102339.00;;;;5053700;28;20196;-76
2024/01/29 10:05:11;;;;;;;2.10;2.00;;;9.60;99.90;11.40;102335.00;;;;5052345;28;20180;-76
2024/01/29 10:07:43;;;;;;;0.67;0.67;;;9.40;99.90;11.80;102335.00;;;;5053800;28;20193;-75
2024/01/29 10:10:10;;;;;;;1.03;1.03;;;9.40;99.90;11.80;102354.00;;;;5061940;28;20204;-75
2024/01/29 10:12:41;;;;;;;0.40;0.40;;;9.60;99.90;12.50;102359.00;;;;5052467;28;20286;-75
2024/01/29 10:15:09;;;;;;;0.40;0.40;;;9.80;99.90;13.10;102363.00;;;;5052171;28;20240;-76
2024/01/29 10:17:35;;;;;;;0.20;0.20;;;10.00;99.90;12.40;102319.00;;;;5052046;28;20213;-75
2024/01/29 10:20:01;;;;;;;0.47;0.30;;;10.10;99.90;12.40;102360.00;;;;5054994;28;20243;-74
2024/01/29 10:33:26;;;;;;;0.13;0.13;;;9.70;99.90;12.60;102323.00;;;;5069190;28;20548;-74
2024/01/29 10:35:54;;;;;;;0.77;0.77;;;10.20;99.90;12.40;102342.00;;;;5045654;28;20235;-87
2024/01/29 10:38:26;;;;;;;0.43;0.43;;;10.50;99.90;12.10;102303.00;;;;5049194;28;20212;-70
2024/01/29 10:40:54;;;;;;;1.77;1.67;;;10.30;99.90;12.20;102349.00;;;;5048388;28;20666;-84
2024/01/29 10:43:22;;;;;;;0.10;0.10;;;10.30;99.90;12.80;102363.00;;;;5050035;28;20188;-84
2024/01/29 10:45:54;;;;;;;0.30;0.30;;;10.40;99.90;14.00;102376.00;;;;5057643;28;20204;-80
2024/01/29 10:48:22;;;;;;;0.43;0.43;;;11.00;99.90;14.50;102391.00;;;;5056428;28;20184;-82
2024/01/29 10:50:50;;;;;;;0.20;0.20;;;11.60;99.90;12.90;102361.00;;;;5057488;28;20659;-75
2024/01/29 10:53:19;;;;;;;0.30;0.30;;;11.00;99.90;14.20;102324.00;;;;5057866;28;20658;-82
2024/01/29 10:55:51;;;;;;;2.57;1.07;;;11.30;99.90;14.80;102367.00;;;;5057249;28;20327;-82
2024/01/29 10:58:21;;;;;;;0.30;0.30;;;11.80;99.90;15.20;102384.00;;;;5056730;28;20210;-83
2024/01/29 11:00:47;;;;;;;0.20;0.20;;;12.10;99.90;14.40;102367.00;;;;5056372;28;20182;-82
2024/01/29 11:03:17;;;;;;;1.30;1.20;;;12.10;99.90;14.60;102346.00;;;;5056250;28;20191;-85
2024/01/29 11:06:00;;;;;;;0.67;0.67;;;12.20;99.90;14.40;102354.00;;;;5055535;28;20242;-82
2024/01/29 11:08:31;;;;;;;1.70;1.70;;;12.00;99.90;14.40;102368.00;;;;5056671;28;20190;-83
2024/01/29 11:11:01;;;;;;;1.83;0.93;;;11.90;99.90;13.80;102358.00;;;;5056640;28;20196;-82
2024/01/29 11:13:28;;;;;;;0.50;0.50;;;11.90;99.90;14.80;102363.00;;;;5056540;28;20206;-84
2024/01/29 11:15:55;;;;;;;1.13;1.00;;;12.10;99.90;14.50;102347.00;;;;5057842;28;20327;-84
2024/01/29 11:18:21;;;;;;;1.13;1.00;;;12.10;99.90;14.80;102343.00;;;;5056286;28;20194;-83
2024/01/29 11:20:56;;;;;;;0.83;0.83;;;12.10;99.90;14.30;102351.00;;;;5039952;28;20198;-82
2024/01/29 11:23:25;;;;;;;1.10;0.87;;;12.10;99.90;13.50;102338.00;;;;5055952;28;20544;-77
2024/01/29 11:26:03;;;;;;;0.10;0.10;;;11.70;99.90;13.60;102344.00;;;;5056514;28;20186;-86
2024/01/29 11:28:32;;;;;;;0.10;0.10;;;11.50;99.90;14.00;102338.00;;;;5039765;28;20309;-84
2024/01/29 11:31:08;;;;;;;1.50;1.33;;;11.40;99.90;12.70;102323.00;;;;5055179;28;20279;-85
2024/01/29 11:33:37;;;;;;;0.53;0.53;;;11.20;99.90;13.70;102328.00;;;;5057115;28;20185;-79
2024/01/29 11:36:11;;;;;;;0.10;0.10;;;11.40;99.90;13.30;102336.00;;;;5056923;28;20191;-86
2024/01/29 11:38:40;;;;;;;1.40;1.07;;;11.20;99.90;14.20;102336.00;;;;5055935;28;20709;-85
2024/01/29 11:41:09;;;;;;;1.20;0.93;;;11.40;99.90;14.40;102343.00;;;;5057974;28;20713;-84
2024/01/29 11:43:35;;;;;;;0.50;0.50;;;11.60;99.90;14.10;102339.00;;;;5049535;28;20226;-85
2024/01/29 11:46:06;;;;;;;0.20;0.20;;;11.70;99.90;14.80;102347.00;;;;5060100;28;20191;-85
2024/01/29 11:48:31;;;;;;;0.50;0.50;;;12.00;99.90;13.30;102319.00;;;;5041632;28;20182;-84
2024/01/29 11:50:57;;;;;;;0.70;0.70;;;11.60;99.90;13.60;102321.00;;;;5044576;28;20181;-86
2024/01/29 11:53:25;;;;;;;0.37;0.37;;;11.50;99.90;13.60;102313.00;;;;5043279;28;20277;-85
2024/01/29 11:55:53;;;;;;;1.60;1.50;;;11.50;99.90;13.70;102320.00;;;;5042338;28;20195;-85
2024/01/29 11:58:22;;;;;;;3.07;1.53;;;11.50;99.90;13.70;102327.00;;;;5041271;28;20722;-86
2024/01/29 12:00:52;;;;;;;0.60;0.60;;;11.60;99.90;14.30;102307.00;;;;5026071;28;20187;-85
2024/01/29 12:03:22;;;;;;;4.13;2.23;;;11.80;99.90;15.50;102340.00;;;;5033807;28;20206;-86
2024/01/29 12:05:51;;;;;;;1.10;1.10;;;12.50;99.90;14.80;102320.00;;;;5041352;28;20292;-83
2024/01/29 12:08:19;;;;;;;0.10;0.10;;;12.50;99.90;14.20;102310.00;;;;5019950;28;20186;-79
2024/01/29 12:10:47;;;;;;;2.00;1.87;;;12.20;99.90;13.70;102322.00;;;;5044534;28;20190;-86
2024/01/29 12:13:18;;;;;;;2.83;1.50;;;12.00;99.90;13.70;102311.00;;;;5033581;28;20211;-86
2024/01/29 12:15:52;;;;;;;0.27;0.27;;;11.90;99.90;14.60;102292.00;;;;5033563;28;20181;-86
2024/01/29 12:18:24;;;;;;;2.63;2.43;;;12.10;99.90;14.10;102310.00;;;;5015521;28;20194;-86
2024/01/29 12:20:51;;;;;;;1.80;1.63;;;12.20;99.90;14.00;102289.00;;;;5031774;28;20180;-86
2024/01/29 12:23:21;;;;;;;2.90;2.70;;;12.10;99.90;15.00;102307.00;;;;5052634;28;20254;-86
2024/01/29 12:25:57;;;;;;;3.30;0.43;;;12.30;99.90;14.40;102313.00;;;;5033811;28;20190;-84
2024/01/29 12:28:25;;;;;;;5.90;3.10;;;12.30;99.90;14.20;102302.00;;;;5024429;28;20261;-87
2024/01/29 12:30:55;;;;;;;0.30;0.30;;;12.20;99.90;14.50;102308.00;;;;5017422;28;20195;-86
2024/01/29 12:33:29;;;;;;;0.20;0.20;;;12.30;99.90;15.30;102304.00;;;;5026180;28;20289;-87
2024/01/29 12:35:57;;;;;;;2.80;2.03;;;12.60;99.90;14.30;102316.00;;;;5033897;28;20210;-86
2024/01/29 12:38:23;;;;;;;0.23;0.23;;;12.40;99.90;14.50;102320.00;;;;5033559;28;20187;-86
2024/01/29 12:41:00;;;;;;;1.90;1.80;;;12.40;99.90;15.00;102325.00;;;;5030012;28;20638;-86
2024/01/29 12:43:29;;;;;;;0.37;0.37;;;12.50;99.90;14.30;102274.00;;;;5049136;28;20656;-86
2024/01/29 12:46:10;;;;;;;3.37;2.77;;;12.20;99.90;15.30;102248.00;;;;5032920;28;20190;-87
2024/01/29 12:48:36;;;;;;;1.30;1.30;;;12.50;99.90;14.30;102279.00;;;;5030449;28;20179;-87
2024/01/29 12:51:04;;;;;;;0.20;0.20;;;12.30;99.90;14.50;102281.00;;;;5034623;28;20187;-87
2024/01/29 12:53:30;;;;;;;2.80;1.53;;;12.40;99.90;15.10;102300.00;;;;5030786;28;20287;-84
2024/01/29 12:55:56;;;;;;;7.37;1.43;;;12.60;99.90;14.80;102284.00;;;;5022316;28;20183;-87
2024/01/29 12:58:23;;;;;;;0.70;0.70;;;12.60;99.90;15.30;102257.00;;;;5035385;28;20185;-88
2024/01/29 13:00:51;;;;;;;0.20;0.20;;;12.60;99.90;15.90;102227.00;;;;5033204;28;20179;-83
2024/01/29 13:03:18;;;;;;;2.10;1.90;;;13.00;99.90;15.20;102291.00;;;;5034281;28;20202;-83
2024/01/29 13:05:46;;;;;;;2.03;1.73;;;13.10;99.90;14.80;102225.00;;;;5033089;28;20183;-83
2024/01/29 13:08:12;;;;;;;0.97;0.70;;;12.80;99.90;15.00;102273.00;;;;5037315;28;20187;-83
2024/01/29 13:10:39;;;;;;;0.70;0.70;;;12.80;99.90;16.30;102244.00;;;;5041161;28;20193;-83
2024/01/29 13:13:10;;;;;;;0.77;0.70;;;13.20;99.90;15.90;102273.00;;;;5040875;28;20195;-82
2024/01/29 13:15:37;;;;;;;1.77;1.20;;;13.30;99.90;15.10;102279.00;;;;5040382;28;20184;-82
2024/01/29 13:18:04;;;;;;;9.07;1.53;;;13.20;99.90;15.10;102239.00;;;;5041308;28;20279;-83
2024/01/29 13:20:30;;;;;;;2.13;2.10;;;12.90;99.90;14.90;102265.00;;;;5042740;28;20188;-82
2024/01/29 13:22:59;;;;;;;2.40;2.23;;;12.80;99.90;14.80;102228.00;;;;5041388;28;20199;-82
2024/01/29 13:25:25;;;;;;;0.20;0.20;;;12.80;99.90;15.40;102281.00;;;;5040146;28;20195;-82
2024/01/29 13:27:55;;;;;;;0.87;0.87;;;13.00;99.90;15.30;102262.00;;;;5040640;28;20179;-83
2024/01/29 13:30:24;;;;;;;0.40;0.40;;;13.00;99.90;15.80;102238.00;;;;5039773;28;20187;-82
2024/01/29 13:32:53;;;;;;;0.57;0.57;;;13.30;99.90;15.60;102265.00;;;;5041356;28;20221;-82
2024/01/29 13:35:21;;;;;;;1.23;1.13;;;13.30;99.90;15.90;102258.00;;;;5041832;28;20185;-83
2024/01/29 13:37:47;;;;;;;2.00;1.13;;;13.40;99.90;15.60;102259.00;;;;5024440;28;20184;-83
2024/01/29 13:40:13;;;;;;;2.57;1.90;;;13.40;99.90;15.60;102235.00;;;;5024900;28;20605;-82
2024/01/29 13:42:56;;;;;;;2.53;1.73;;;13.30;99.90;15.10;102234.00;;;;5040364;28;20536;-81
2024/01/29 13:45:46;;;;;;;1.53;1.30;;;13.20;99.90;15.10;102226.00;;;;5040147;28;20661;-82
2024/01/29 13:48:30;;;;;;;2.13;1.37;;;13.10;99.90;15.60;102228.00;;;;5039930;28;20203;-81
2024/01/29 13:50:59;;;;;;;7.07;4.80;;;13.30;99.90;15.30;102229.00;;;;5039672;28;20216;-82
2024/01/29 13:53:25;;;;;;;0.83;0.83;;;13.40;99.90;15.50;102229.00;;;;5040732;28;20286;-82
2024/01/29 13:55:51;;;;;;;2.20;1.17;;;13.30;99.90;15.30;102214.00;;;;5041753;28;20271;-82
2024/01/29 13:58:31;;;;;;;0.63;0.63;;;13.30;99.90;15.80;102219.00;;;;5023488;28;20251;-82
2024/01/29 14:01:00;;;;;;;1.10;1.00;;;13.30;99.90;16.00;102233.00;;;;5023447;28;20274;-81
2024/01/29 14:03:25;;;;;;;0.77;0.70;;;13.50;99.90;15.50;102222.00;;;;5024775;28;20223;-82
2024/01/29 14:05:52;;;;;;;1.80;0.77;;;13.30;99.90;16.10;102226.00;;;;5039388;28;20219;-81
2024/01/29 14:08:20;;;;;;;1.30;0.87;;;13.50;99.90;16.10;102227.00;;;;5040322;28;20583;-82
2024/01/29 14:10:48;;;;;;;3.07;1.97;;;13.50;99.90;16.10;102229.00;;;;5040325;28;20218;-82
2024/01/29 14:13:16;;;;;;;0.50;0.50;;;13.60;99.90;15.90;102237.00;;;;5041709;28;20200;-82
2024/01/29 14:15:50;;;;;;;1.90;1.80;;;13.50;99.90;15.90;102222.00;;;;5040028;28;20239;-82
2024/01/29 14:18:16;;;;;;;0.90;0.83;;;13.50;99.90;15.80;102239.00;;;;5039359;28;20195;-82
2024/01/29 14:20:42;;;;;;;0.53;0.53;;;13.50;99.90;16.10;102188.00;;;;5041746;28;20192;-83
2024/01/29 14:23:08;;;;;;;0.63;0.60;;;13.50;99.90;16.30;102258.00;;;;5040323;28;20602;-82
2024/01/29 14:25:37;;;;;;;0.33;0.33;;;13.50;99.90;16.20;102247.00;;;;5027282;28;20291;-82
2024/01/29 14:28:04;;;;;;;5.20;4.73;;;13.50;99.90;16.30;102264.00;;;;5041387;28;20180;-82
2024/01/29 14:30:37;;;;;;;0.60;0.60;;;13.60;99.90;16.60;102239.00;;;;5039995;28;20196;-83
2024/01/29 14:33:41;;;;;;;1.60;1.50;;;13.60;99.90;16.20;102230.00;;;;5022156;28;20311;-82
2024/01/29 14:36:47;;;;;;;0.57;0.57;;;13.50;99.90;15.80;102194.00;;;;5038552;28;20266;-85
2024/01/29 14:39:55;;;;;;;0.80;0.80;;;13.30;99.90;16.30;102235.00;;;;5029146;28;20188;-82
2024/01/29 14:45:42;;;;;;;0.50;0.50;;;13.70;99.90;17.40;102250.00;;;;5038803;28;20203;-78
2024/01/29 14:49:01;;;;;;;0.50;0.50;;;14.20;99.90;16.30;102261.00;;;;5038264;28;20184;-80
2024/01/29 14:51:29;;;;;;;0.23;0.23;;;13.80;99.90;16.80;102282.00;;;;5039738;28;20292;-82
2024/01/29 14:53:55;;;;;;;0.30;0.30;;;13.80;99.90;16.10;102284.00;;;;5040447;28;20197;-81
2024/01/29 14:56:25;;;;;;;0.23;0.23;;;13.60;99.90;15.50;102240.00;;;;5040280;28;20185;-80
2024/01/29 14:58:51;;;;;;;0.30;0.30;;;13.20;99.90;16.30;102274.00;;;;5040322;28;20238;-81
2024/01/29 15:01:17;;;;;;;0.20;0.20;;;13.30;99.90;16.30;102276.00;;;;5022749;28;20210;-82
2024/01/29 15:03:44;;;;;;;0.97;0.97;;;13.40;99.90;16.40;102289.00;;;;5040450;28;20196;-82
2024/01/29 15:06:23;;;;;;;0.20;0.20;;;13.50;99.90;16.30;102293.00;;;;5038871;28;20541;-82
2024/01/29 15:08:49;;;;;;;0.20;0.20;;;13.50;99.90;17.00;102300.00;;;;5023511;28;20210;-82
2024/01/29 15:11:15;;;;;;;0.20;0.20;;;13.70;99.90;17.00;102289.00;;;;5041112;28;20527;-82
2024/01/29 15:13:50;;;;;;;0.20;0.20;;;13.70;99.90;16.30;102269.00;;;;5039657;28;20622;-82
2024/01/29 15:16:17;;;;;;;0.20;0.20;;;13.60;99.90;16.50;102291.00;;;;5041108;28;20186;-82
2024/01/29 15:18:47;;;;;;;0.20;0.20;;;13.50;99.90;16.30;102295.00;;;;5043062;28;20291;-84
2024/01/29 15:21:13;;;;;;;0.20;0.20;;;13.50;99.90;16.80;102291.00;;;;5043172;28;20212;-85
2024/01/29 15:23:39;;;;;;;0.20;0.20;;;13.50;99.90;16.60;102256.00;;;;5044726;28;20545;-82
2024/01/29 15:26:05;;;;;;;0.40;0.40;;;13.50;99.90;16.30;102295.00;;;;5043767;28;20198;-82
2024/01/29 15:28:34;;;;;;;25.07;7.27;;;13.50;99.90;16.60;102280.00;;;;5044182;28;20539;-82
2024/01/29 15:31:03;;;;;;;1.07;0.47;;;13.50;99.90;16.80;102313.00;;;;5044666;28;20267;-83
2024/01/29 15:33:32;;;;;;;0.20;0.20;;;13.60;99.90;16.80;102307.00;;;;5042691;28;20718;-82
2024/01/29 15:36:03;;;;;;;0.30;0.30;;;13.60;99.90;16.70;102307.00;;;;5042356;28;20196;-83
2024/01/29 15:38:29;;;;;;;0.40;0.40;;;13.60;99.90;16.30;102295.00;;;;5043777;28;20175;-83
2024/01/29 15:40:58;;;;;;;0.30;0.30;;;13.40;99.90;16.00;102300.00;;;;5043969;28;20218;-83
2024/01/29 15:43:28;;;;;;;0.20;0.20;;;13.20;99.90;16.50;102304.00;;;;5042322;28;20207;-82
2024/01/29 15:46:09;;;;;;;1.80;1.70;;;13.30;99.90;17.00;102297.00;;;;5042281;28;20189;-83
2024/01/29 15:48:42;;;;;;;0.20;0.20;;;13.40;99.90;16.70;102316.00;;;;5041261;28;20180;-83
2024/01/29 15:51:28;;;;;;;0.50;0.50;;;13.50;99.90;16.40;102319.00;;;;5024400;28;20202;-84
2024/01/29 15:53:54;;;;;;;0.40;0.40;;;13.40;99.90;16.50;102320.00;;;;5042595;28;20173;-81
2024/01/29 15:56:20;;;;;;;0.67;0.67;;;13.30;99.90;16.30;102310.00;;;;5043618;28;20180;-86
2024/01/29 15:58:46;;;;;;;3.30;2.60;;;13.30;99.90;16.00;102309.00;;;;5043775;28;20204;-84
2024/01/29 16:01:15;;;;;;;0.40;0.40;;;13.20;99.90;16.40;102291.00;;;;5042052;28;20206;-86
2024/01/29 16:03:40;;;;;;;0.20;0.20;;;13.20;99.90;16.50;102293.00;;;;5059899;28;20694;-85
2024/01/29 16:06:11;;;;;;;0.20;0.20;;;13.30;99.90;16.50;102305.00;;;;5025125;28;20216;-86
2024/01/29 16:08:40;;;;;;;0.30;0.30;;;13.30;99.90;16.60;102323.00;;;;5041319;28;20281;-85
2024/01/29 16:11:09;;;;;;;0.30;0.30;;;13.30;99.90;16.30;102301.00;;;;5042310;28;20187;-85
2024/01/29 16:13:35;;;;;;;0.20;0.20;;;13.30;99.90;16.80;102322.00;;;;5039956;28;20203;-85
2024/01/29 16:16:04;;;;;;;0.30;0.30;;;13.30;99.90;16.80;102322.00;;;;5039699;28;20187;-84
2024/01/29 16:18:31;;;;;;;0.50;0.50;;;13.40;99.90;16.50;102313.00;;;;5039498;28;20183;-83
2024/01/29 16:21:02;;;;;;;0.30;0.30;;;13.40;99.90;16.60;102321.00;;;;5042599;28;20685;-80
2024/01/29 16:23:28;;;;;;;0.20;0.20;;;13.20;99.90;16.70;102303.00;;;;5026176;28;20200;-80
2024/01/29 16:25:55;;;;;;;0.50;0.50;;;13.30;99.90;16.20;102326.00;;;;5058488;28;20333;-78
2024/01/29 16:28:47;;;;;;;0.23;0.23;;;13.10;99.90;16.50;102286.00;;;;5040388;28;20217;-79
2024/01/29 16:31:15;;;;;;;0.30;0.30;;;13.10;99.90;16.40;102328.00;;;;5042807;28;20182;-80
2024/01/29 16:34:02;;;;;;;1.23;1.23;;;13.10;99.90;16.40;102292.00;;;;5044449;28;20184;-79
2024/01/29 16:36:45;;;;;;;0.30;0.30;;;13.10;99.90;16.20;102321.00;;;;5024658;28;20220;-79
2024/01/29 16:39:22;;;;;;;0.20;0.20;;;13.00;99.90;16.20;102321.00;;;;5041697;28;20274;-79
2024/01/29 16:42:10;;;;;;;0.30;0.30;;;13.00;99.90;16.20;102306.00;;;;5042620;28;20214;-80
2024/01/29 16:44:36;;;;;;;0.30;0.30;;;12.80;99.90;16.20;102328.00;;;;5041519;28;20179;-80
2024/01/29 16:47:22;;;;;;;0.30;0.30;;;12.90;99.90;16.20;102335.00;;;;5041419;28;20194;-79
2024/01/29 16:50:24;;;;;;;0.30;0.30;;;12.80;99.90;16.10;102290.00;;;;5042726;28;20183;-80
2024/01/29 16:52:51;;;;;;;0.30;0.30;;;12.80;99.90;16.00;102340.00;;;;5040645;28;20214;-80
2024/01/29 16:55:17;;;;;;;0.30;0.30;;;12.80;99.90;15.90;102339.00;;;;5026077;28;20223;-80
2024/01/29 16:57:54;;;;;;;0.37;0.37;;;12.70;99.90;15.60;102324.00;;;;5042068;28;20193;-79
2024/01/29 17:00:20;;;;;;;0.20;0.20;;;12.70;99.90;15.50;102331.00;;;;5041670;28;20753;-80
2024/01/29 17:03:23;;;;;;;0.70;0.70;;;12.50;99.90;15.40;102322.00;;;;5039853;28;20194;-80
2024/01/29 17:06:29;;;;;;;0.80;0.80;;;12.40;99.90;15.70;102331.00;;;;5038330;28;20551;-80
2024/01/29 17:09:43;;;;;;;0.30;0.30;;;12.40;99.90;15.50;102332.00;;;;5027813;28;20244;-80
2024/01/29 17:12:27;;;;;;;0.30;0.30;;;12.40;99.90;15.50;102327.00;;;;5026254;28;20209;-80
2024/01/29 17:15:00;;;;;;;0.30;0.30;;;12.40;99.90;15.20;102325.00;;;;5023957;28;20671;-80
2024/01/29 17:18:05;;;;;;;0.30;0.30;;;12.30;99.90;15.20;102324.00;;;;5041577;28;20536;-80
2024/01/29 17:20:32;;;;;;;0.80;0.80;;;12.20;99.90;15.20;102333.00;;;;5039170;28;20202;-80
2024/01/29 17:23:00;;;;;;;0.50;0.50;;;12.20;99.90;14.80;102307.00;;;;5040549;28;20194;-79
2024/01/29 17:25:26;;;;;;;0.30;0.30;;;12.00;99.90;14.50;102311.00;;;;5042041;28;20189;-79
2024/01/29 17:27:52;;;;;;;0.30;0.30;;;12.00;99.90;14.80;102322.00;;;;5041171;28;20183;-80
2024/01/29 17:30:21;;;;;;;0.50;0.50;;;12.00;99.90;14.90;102268.00;;;;5040477;28;20279;-80
2024/01/29 17:32:47;;;;;;;7.30;6.90;;;12.00;99.90;15.00;102331.00;;;;5040360;28;20229;-79
2024/01/29 17:35:19;;;;;;;0.30;0.30;;;12.00;99.90;15.20;102327.00;;;;5040272;28;20646;-77
2024/01/29 17:37:44;;;;;;;0.37;0.37;;;12.10;99.90;14.90;102322.00;;;;5024287;28;20564;-76
2024/01/29 17:40:10;;;;;;;0.30;0.30;;;12.10;99.90;15.00;102317.00;;;;5040791;28;20184;-75
2024/01/29 17:42:39;;;;;;;0.50;0.50;;;12.10;99.90;14.80;102318.00;;;;5040091;28;20186;-75
2024/01/29 17:45:08;;;;;;;3.03;1.33;;;12.00;99.90;14.40;102302.00;;;;5040026;28;20210;-75
2024/01/29 17:47:34;;;;;;;1.80;1.70;;;11.80;99.90;14.60;102256.00;;;;5040216;28;20269;-75
2024/01/29 17:50:00;;;;;;;2.27;1.83;;;11.80;99.90;14.70;102295.00;;;;5039682;28;20697;-76
2024/01/29 17:52:26;;;;;;;0.70;0.70;;;11.90;99.90;14.20;102290.00;;;;5041918;28;20199;-75
2024/01/29 17:54:52;;;;;;;0.60;0.60;;;11.80;99.90;14.10;102285.00;;;;5040210;28;20184;-75
2024/01/29 17:57:18;;;;;;;1.63;1.63;;;11.70;99.90;14.20;102282.00;;;;5036915;28;20631;-76
2024/01/29 17:59:47;;;;;;;0.73;0.73;;;11.70;99.90;13.90;102245.00;;;;5026259;28;20529;-75
2024/01/29 18:02:13;;;;;;;4.87;4.43;;;11.70;99.90;14.20;102258.00;;;;5014334;28;20198;-75
2024/01/29 18:05:07;;;;;;;0.80;0.80;;;11.60;99.90;14.00;102266.00;;;;5015539;28;20188;-75
2024/01/29 18:07:38;;;;;;;0.60;0.60;;;11.60;99.90;14.00;102277.00;;;;5030229;28;20654;-75
2024/01/29 18:10:06;;;;;;;1.07;1.07;;;11.60;99.90;14.10;102269.00;;;;5031978;28;20268;-75
2024/01/29 18:12:32;;;;;;;2.67;1.90;;;11.70;99.90;14.30;102287.00;;;;5015195;28;20629;-75
2024/01/29 18:14:58;;;;;;;0.60;0.60;;;11.70;99.90;13.70;102272.00;;;;5031061;28;20229;-75
2024/01/29 18:17:24;;;;;;;2.90;1.90;;;11.60;99.90;13.60;102288.00;;;;5031784;28;20565;-75
2024/01/29 18:19:51;;;;;;;0.33;0.33;;;11.60;99.90;13.80;102277.00;;;;5033245;28;20192;-75
2024/01/29 18:22:18;;;;;;;0.73;0.73;;;11.60;99.90;13.60;102201.00;;;;5033555;28;20224;-75
2024/01/29 18:24:45;;;;;;;0.33;0.33;;;11.60;99.90;14.20;102274.00;;;;5031854;28;20209;-75
2024/01/29 18:27:13;;;;;;;2.60;2.43;;;11.60;99.90;13.80;102280.00;;;;5015582;28;20545;-75
2024/01/29 18:29:40;;;;;;;0.43;0.43;;;11.60;99.90;13.60;102283.00;;;;5031199;28;20679;-73
2024/01/29 18:32:06;;;;;;;1.80;1.67;;;11.50;99.90;13.30;102232.00;;;;5031854;28;20680;-75
2024/01/29 18:34:32;;;;;;;0.83;0.83;;;11.40;99.90;13.40;102274.00;;;;5032089;28;20189;-75
2024/01/29 18:37:02;;;;;;;1.47;1.23;;;11.40;99.90;13.60;102238.00;;;;5031678;28;20556;-75
2024/01/29 18:39:31;;;;;;;0.87;0.87;;;11.40;99.90;13.90;102284.00;;;;5032893;28;20192;-75
2024/01/29 18:41:57;;;;;;;2.03;1.90;;;11.50;99.90;13.40;102282.00;;;;5032354;28;20205;-76
2024/01/29 18:44:29;;;;;;;0.83;0.83;;;11.50;99.90;14.20;102289.00;;;;5030749;28;20266;-75
2024/01/29 18:46:57;;;;;;;0.20;0.20;;;11.60;99.90;13.90;102303.00;;;;5030624;28;20610;-74
2024/01/29 18:49:23;;;;;;;2.77;1.53;;;11.60;99.90;13.50;102308.00;;;;5031667;28;20196;-76
2024/01/29 18:51:49;;;;;;;7.13;0.93;;;11.50;99.90;13.30;102290.00;;;;5031959;28;20202;-77
2024/01/29 18:54:15;;;;;;;2.10;2.00;;;11.40;99.90;13.20;102282.00;;;;5017844;28;20193;-77